Time;durP1;ratioP1;P1;durP2;ratioP2;P2;SDS_P1;SDS_P2;PMS_P1;PMS_P2;Temp;Humidity;BMP_temperature;BMP_pressure;BME280_temperature;BME280_humidity;BME280_pressure;Samples;Min_cycle;Max_cycle;Signal;HPM_P1;HPM_P2
2021/07/29 00:20:09;;;;;;;2.20;1.35;;;12.00;99.90;;;;;;5744315;23;20042;-94
2021/07/29 00:36:32;;;;;;;1.65;1.17;;;12.00;99.90;;;;;;6116928;23;20017;-95
2021/07/29 00:39:12;;;;;;;5.00;2.15;;;12.00;99.90;;;;;;5682337;23;20028;-96
2021/07/29 00:45:19;;;;;;;4.07;2.45;;;12.10;99.90;;;;;;4977872;28;20034;-95
2021/07/29 00:47:47;;;;;;;2.45;1.83;;;12.10;99.90;;;;;;4973498;28;20097;-96
2021/07/29 00:50:14;;;;;;;5.10;2.38;;;12.10;99.90;;;;;;4961854;29;20068;-95
2021/07/29 00:52:40;;;;;;;5.93;2.97;;;12.10;99.90;;;;;;4967874;29;20023;-96
2021/07/29 00:55:34;;;;;;;4.38;2.90;;;12.10;99.90;;;;;;4979816;28;20055;-96
2021/07/29 00:58:09;;;;;;;7.65;3.25;;;12.10;99.90;;;;;;4979628;28;20038;-96
2021/07/29 01:06:29;;;;;;;3.45;2.83;;;12.10;99.90;;;;;;5263844;23;20057;-96
2021/07/29 01:11:35;;;;;;;5.72;3.40;;;12.10;99.90;;;;;;5075882;23;20051;-96
2021/07/29 01:14:06;;;;;;;6.03;3.63;;;12.10;99.90;;;;;;4958510;28;20126;-95
2021/07/29 01:16:33;;;;;;;6.13;4.15;;;12.10;99.90;;;;;;4986977;28;20035;-95
2021/07/29 01:19:00;;;;;;;12.02;4.90;;;12.10;99.90;;;;;;4971603;28;20034;-95
2021/07/29 01:21:27;;;;;;;8.05;5.05;;;12.20;99.90;;;;;;4976426;28;20090;-94
2021/07/29 01:24:00;;;;;;;13.93;8.07;;;12.20;99.90;;;;;;4977417;28;20022;-96
2021/07/29 01:26:29;;;;;;;11.90;7.25;;;12.20;99.90;;;;;;4975846;28;20030;-95
2021/07/29 01:28:56;;;;;;;12.23;8.05;;;12.20;99.90;;;;;;4972582;28;20023;-95
2021/07/29 01:31:22;;;;;;;12.98;8.30;;;12.20;99.90;;;;;;4970436;28;20027;-94
2021/07/29 01:33:48;;;;;;;13.02;7.22;;;12.20;99.90;;;;;;4964955;28;20045;-94
2021/07/29 01:36:14;;;;;;;12.68;7.63;;;12.20;99.90;;;;;;4965470;28;20019;-96
2021/07/29 01:38:40;;;;;;;11.27;6.28;;;12.20;99.90;;;;;;4963778;28;20035;-93
2021/07/29 01:41:05;;;;;;;8.85;6.13;;;12.20;99.90;;;;;;4964153;28;20037;-94
2021/07/29 01:43:36;;;;;;;11.02;7.78;;;12.20;99.90;;;;;;4963253;28;20396;-93
2021/07/29 02:00:36;;;;;;;14.77;7.93;;;12.30;99.90;;;;;;5698821;23;19922;-96
2021/07/29 02:09:14;;;;;;;10.25;6.78;;;12.40;99.90;;;;;;5714073;23;20047;-95
2021/07/29 02:11:49;;;;;;;11.50;6.35;;;12.40;99.90;;;;;;5005138;23;20075;-94
2021/07/29 02:14:21;;;;;;;11.68;8.10;;;12.40;99.90;;;;;;4955383;29;20020;-94
2021/07/29 02:16:56;;;;;;;10.55;7.50;;;12.40;99.90;;;;;;4974154;29;20099;-95
2021/07/29 02:19:47;;;;;;;12.90;7.78;;;12.40;99.90;;;;;;4958580;29;20031;-96
2021/07/29 02:22:13;;;;;;;11.48;6.50;;;12.40;99.90;;;;;;4959564;29;20043;-96
2021/07/29 02:24:55;;;;;;;11.75;6.93;;;12.40;99.90;;;;;;4962183;29;20027;-96
2021/07/29 02:27:32;;;;;;;15.25;7.85;;;12.40;99.90;;;;;;4961154;28;20026;-96
2021/07/29 02:30:00;;;;;;;9.10;5.65;;;12.40;99.90;;;;;;4977792;28;20039;-95
2021/07/29 02:32:27;;;;;;;7.32;5.25;;;12.40;99.90;;;;;;4957871;29;20108;-95
2021/07/29 02:35:12;;;;;;;13.70;5.78;;;12.40;99.90;;;;;;4973168;28;20039;-95
2021/07/29 02:40:18;;;;;;;8.60;5.65;;;12.50;99.90;;;;;;5197057;23;20062;-95
2021/07/29 02:42:48;;;;;;;10.90;5.93;;;12.50;99.90;;;;;;4964429;28;20023;-95
2021/07/29 02:45:16;;;;;;;10.15;7.20;;;12.50;99.90;;;;;;4966959;28;20042;-96
2021/07/29 02:48:12;;;;;;;14.32;7.57;;;12.50;99.90;;;;;;4967160;28;20090;-96
2021/07/29 02:50:38;;;;;;;14.40;6.57;;;12.50;99.90;;;;;;5433008;23;20035;-94
2021/07/29 02:53:06;;;;;;;9.00;6.38;;;12.50;99.90;;;;;;4963590;28;20034;-95
2021/07/29 02:55:32;;;;;;;10.90;6.07;;;12.60;99.90;;;;;;4962738;29;20021;-94
2021/07/29 02:57:58;;;;;;;10.65;5.63;;;12.60;99.90;;;;;;4962581;28;20062;-95
2021/07/29 03:00:24;;;;;;;6.97;3.90;;;12.60;99.90;;;;;;4962877;29;20015;-94
2021/07/29 03:02:50;;;;;;;9.15;4.97;;;12.60;99.90;;;;;;4958802;29;20046;-95
2021/07/29 03:05:17;;;;;;;14.85;6.22;;;12.60;99.90;;;;;;4956543;29;20017;-95
2021/07/29 03:07:44;;;;;;;12.65;5.35;;;12.60;99.90;;;;;;4972422;28;20026;-94
2021/07/29 03:10:12;;;;;;;9.70;4.70;;;12.60;99.90;;;;;;4953968;29;20023;-94
2021/07/29 03:12:44;;;;;;;7.82;5.13;;;12.60;99.90;;;;;;4947471;29;20497;-96
2021/07/29 03:15:10;;;;;;;7.63;4.82;;;12.60;99.90;;;;;;4934909;29;20023;-93
2021/07/29 03:17:36;;;;;;;10.18;4.70;;;12.60;99.90;;;;;;4943454;29;20122;-95
2021/07/29 03:20:02;;;;;;;6.88;4.10;;;12.60;99.90;;;;;;4948785;29;20038;-93
2021/07/29 03:22:28;;;;;;;13.23;4.40;;;12.60;99.90;;;;;;4948748;29;20034;-95
2021/07/29 03:24:54;;;;;;;13.68;6.07;;;12.60;99.90;;;;;;4942704;29;20032;-95
2021/07/29 03:27:19;;;;;;;7.25;4.55;;;12.60;99.90;;;;;;4945440;29;20031;-93
2021/07/29 03:29:45;;;;;;;9.52;5.53;;;12.60;99.90;;;;;;4941139;29;20035;-93
2021/07/29 03:32:11;;;;;;;9.88;5.93;;;12.60;99.90;;;;;;4943719;29;20046;-94
2021/07/29 03:34:36;;;;;;;10.63;6.45;;;12.60;99.90;;;;;;4940635;29;20038;-92
2021/07/29 03:37:02;;;;;;;20.17;7.88;;;12.60;99.90;;;;;;4949215;29;20035;-93
2021/07/29 03:39:28;;;;;;;13.23;7.22;;;12.60;99.90;;;;;;4945604;29;20485;-94
2021/07/29 03:41:56;;;;;;;10.88;6.80;;;12.60;99.90;;;;;;4944933;29;20512;-93
2021/07/29 03:44:22;;;;;;;11.43;6.15;;;12.60;99.90;;;;;;4951849;29;20030;-94
2021/07/29 03:46:48;;;;;;;12.02;8.70;;;12.60;99.90;;;;;;4946278;29;20035;-95
2021/07/29 03:49:39;;;;;;;12.52;9.55;;;12.50;99.90;;;;;;4949631;29;20110;-95
2021/07/29 04:01:11;;;;;;;10.15;7.57;;;12.50;99.90;;;;;;5250472;23;20055;-95
2021/07/29 04:03:41;;;;;;;13.65;8.10;;;12.40;99.90;;;;;;4984798;28;20107;-95
2021/07/29 04:06:07;;;;;;;;;;;12.40;99.90;;;;;;5400444;23;20039;-95
2021/07/29 04:11:26;;;;;;;16.77;8.77;;;12.40;99.90;;;;;;5024828;23;20118;-95
2021/07/29 04:19:03;;;;;;;12.02;8.13;;;12.40;99.90;;;;;;5633251;23;20047;-96
2021/07/29 04:21:28;;;;;;;9.27;6.30;;;12.30;99.90;;;;;;4961587;29;20039;-95
2021/07/29 04:23:56;;;;;;;11.50;7.30;;;12.30;99.90;;;;;;4961166;29;20086;-95
2021/07/29 04:26:25;;;;;;;10.02;6.47;;;12.30;99.90;;;;;;4958591;28;20049;-95
2021/07/29 04:28:51;;;;;;;9.55;6.80;;;12.30;99.90;;;;;;4942371;29;20031;-95
2021/07/29 04:31:20;;;;;;;10.73;6.68;;;12.20;99.90;;;;;;4977110;28;20074;-95
2021/07/29 04:33:45;;;;;;;10.32;6.45;;;12.30;99.90;;;;;;4959417;29;20039;-96
2021/07/29 04:36:38;;;;;;;11.90;7.28;;;12.20;99.90;;;;;;4973106;29;20027;-95
2021/07/29 04:58:38;;;;;;;10.60;5.07;;;12.20;99.90;;;;;;5317309;23;20048;-95
2021/07/29 05:01:04;;;;;;;11.82;5.70;;;12.20;99.90;;;;;;4970771;28;20039;-94
2021/07/29 05:03:30;;;;;;;11.23;5.30;;;12.20;99.90;;;;;;4969459;28;20086;-93
2021/07/29 05:06:04;;;;;;;9.45;5.20;;;12.30;99.90;;;;;;4968448;28;20042;-95
2021/07/29 05:08:30;;;;;;;9.50;4.60;;;12.30;99.90;;;;;;4974894;28;20035;-94
2021/07/29 05:10:56;;;;;;;10.50;4.90;;;12.30;99.90;;;;;;4964461;28;20423;-94
2021/07/29 05:13:22;;;;;;;9.02;4.55;;;12.30;99.90;;;;;;4966708;28;20035;-94
2021/07/29 05:15:48;;;;;;;9.43;3.85;;;12.30;99.90;;;;;;4964660;28;20065;-93
2021/07/29 05:18:14;;;;;;;11.27;4.00;;;12.30;99.90;;;;;;4965552;28;20031;-95
2021/07/29 05:20:41;;;;;;;6.72;3.60;;;12.30;99.90;;;;;;4971106;28;20027;-95
2021/07/29 05:23:07;;;;;;;5.57;3.40;;;12.30;99.90;;;;;;4962907;28;20038;-95
2021/07/29 05:25:36;;;;;;;8.13;3.55;;;12.30;99.90;;;;;;4967437;28;20033;-95
2021/07/29 05:28:02;;;;;;;9.27;3.35;;;12.30;99.90;;;;;;4975359;28;20042;-95
2021/07/29 05:30:28;;;;;;;9.23;3.08;;;12.30;99.90;;;;;;4969539;28;20022;-94
2021/07/29 05:32:53;;;;;;;7.22;2.83;;;12.40;99.90;;;;;;4969243;28;20041;-95
2021/07/29 05:35:19;;;;;;;6.40;2.35;;;12.40;99.90;;;;;;4964339;28;20061;-93
2021/07/29 05:37:45;;;;;;;8.68;3.88;;;12.50;99.90;;;;;;4961278;28;20039;-94
2021/07/29 05:40:11;;;;;;;7.00;2.50;;;12.50;99.90;;;;;;4960757;28;20027;-92
2021/07/29 05:42:36;;;;;;;9.10;2.17;;;12.50;99.90;;;;;;4960988;28;20388;-94
2021/07/29 05:45:03;;;;;;;7.97;2.22;;;12.50;99.90;;;;;;4963071;28;20121;-93
2021/07/29 05:47:29;;;;;;;8.05;2.40;;;12.50;99.90;;;;;;4964612;28;20034;-93
2021/07/29 05:49:54;;;;;;;7.30;2.45;;;12.50;99.90;;;;;;4959547;28;20433;-94
2021/07/29 05:52:20;;;;;;;7.40;2.70;;;12.50;99.90;;;;;;4961369;28;20069;-94
2021/07/29 05:54:46;;;;;;;7.38;2.72;;;12.60;99.90;;;;;;4959642;28;20499;-93
2021/07/29 05:57:11;;;;;;;3.47;2.10;;;12.60;99.90;;;;;;4964948;28;20396;-95
2021/07/29 05:59:37;;;;;;;8.73;2.47;;;12.60;99.90;;;;;;4958415;28;20137;-92
2021/07/29 06:02:03;;;;;;;4.55;2.25;;;12.60;99.90;;;;;;4958981;29;20098;-93
2021/07/29 06:04:29;;;;;;;5.03;2.33;;;12.60;99.90;;;;;;4963504;29;20050;-94
2021/07/29 06:06:55;;;;;;;6.95;2.72;;;12.60;99.90;;;;;;4956106;29;20028;-94
2021/07/29 06:09:20;;;;;;;8.32;2.40;;;12.70;99.90;;;;;;4957779;28;20031;-93
2021/07/29 06:11:48;;;;;;;6.90;1.80;;;12.70;99.90;;;;;;4957761;28;20034;-94
2021/07/29 06:14:14;;;;;;;8.70;2.15;;;12.70;99.90;;;;;;4958341;28;20126;-93
2021/07/29 06:16:40;;;;;;;5.57;1.85;;;12.70;99.90;;;;;;4957334;28;20485;-93
2021/07/29 06:21:35;;;;;;;7.82;2.08;;;12.70;99.90;;;;;;4959725;28;20130;-94
2021/07/29 06:24:02;;;;;;;2.92;1.20;;;12.80;99.90;;;;;;4960165;28;20026;-95
2021/07/29 06:26:28;;;;;;;6.43;2.08;;;12.80;99.90;;;;;;4957649;29;20493;-93
2021/07/29 06:28:54;;;;;;;10.30;2.35;;;12.80;99.90;;;;;;4959970;29;20023;-94
2021/07/29 06:31:23;;;;;;;6.82;1.70;;;12.80;99.90;;;;;;4958989;28;20027;-93
2021/07/29 06:33:49;;;;;;;5.72;1.85;;;12.80;99.90;;;;;;4957102;28;20023;-93
2021/07/29 06:36:15;;;;;;;6.75;1.70;;;12.80;99.90;;;;;;4957751;28;20122;-92
2021/07/29 06:38:41;;;;;;;8.07;2.10;;;12.80;99.90;;;;;;4955929;28;20090;-92
2021/07/29 06:41:07;;;;;;;5.25;1.85;;;12.80;99.90;;;;;;4958643;29;20027;-93
2021/07/29 06:43:34;;;;;;;8.57;1.92;;;12.80;99.90;;;;;;4943362;29;20039;-96
2021/07/29 06:46:07;;;;;;;4.10;1.50;;;12.90;99.90;;;;;;4960747;29;20092;-96
2021/07/29 06:48:41;;;;;;;5.78;2.42;;;12.90;99.90;;;;;;4965550;29;20014;-95
2021/07/29 07:16:42;;;;;;;5.13;1.63;;;13.00;99.90;;;;;;5595079;23;20059;-96
2021/07/29 07:19:07;;;;;;;5.93;1.23;;;13.10;99.90;;;;;;4968458;28;20031;-93
2021/07/29 07:21:35;;;;;;;5.25;1.67;;;13.10;99.90;;;;;;4961734;28;20022;-96
2021/07/29 07:24:00;;;;;;;4.35;1.23;;;13.20;99.90;;;;;;4957417;29;20035;-94
2021/07/29 07:26:29;;;;;;;3.83;1.50;;;13.20;99.90;;;;;;4941644;29;20090;-95
2021/07/29 07:28:55;;;;;;;3.35;1.65;;;13.30;99.90;;;;;;4940153;29;20023;-93
2021/07/29 07:31:21;;;;;;;4.85;1.23;;;13.30;99.90;;;;;;4946379;28;20081;-93
2021/07/29 07:33:48;;;;;;;3.17;1.17;;;13.40;99.90;;;;;;4962272;28;20027;-94
2021/07/29 07:36:17;;;;;;;7.32;2.15;;;13.50;99.90;;;;;;4955813;28;20035;-95
2021/07/29 07:38:43;;;;;;;2.67;1.38;;;13.60;99.90;;;;;;4959809;28;20066;-95
2021/07/29 07:41:17;;;;;;;5.75;1.60;;;13.70;99.90;;;;;;4950822;28;20026;-93
2021/07/29 07:51:48;;;;;;;6.80;1.40;;;14.00;99.90;;;;;;5178811;23;20109;-96
2021/07/29 07:54:14;;;;;;;7.88;1.67;;;14.10;99.90;;;;;;4961428;28;20050;-95
2021/07/29 07:56:43;;;;;;;3.13;1.50;;;14.30;99.90;;;;;;4964641;28;20058;-95
2021/07/29 07:59:09;;;;;;;8.00;2.35;;;14.40;99.90;;;;;;4962454;28;20035;-95
2021/07/29 08:01:38;;;;;;;3.97;1.10;;;14.40;99.90;;;;;;4961410;28;20023;-94
2021/07/29 08:04:04;;;;;;;3.13;1.00;;;14.40;99.90;;;;;;4958087;28;20086;-94
2021/07/29 08:06:29;;;;;;;3.80;1.02;;;14.50;99.90;;;;;;4961644;28;20050;-94
2021/07/29 08:09:00;;;;;;;2.78;1.25;;;14.50;99.90;;;;;;4962701;28;20035;-95
2021/07/29 08:11:28;;;;;;;1.35;0.77;;;14.60;99.90;;;;;;4961493;28;20023;-96
2021/07/29 08:13:53;;;;;;;4.82;1.30;;;14.60;99.90;;;;;;4961307;28;20089;-92
2021/07/29 08:16:19;;;;;;;3.08;1.23;;;14.60;99.90;;;;;;4952905;28;20036;-94
2021/07/29 08:18:45;;;;;;;5.00;1.27;;;14.60;99.90;;;;;;4956061;28;20030;-94
2021/07/29 08:21:14;;;;;;;5.90;1.25;;;14.70;99.90;;;;;;4962508;28;20031;-95
2021/07/29 08:23:42;;;;;;;5.93;1.55;;;14.70;99.90;;;;;;4965260;28;20125;-94
2021/07/29 08:26:12;;;;;;;3.53;1.00;;;14.60;99.90;;;;;;4971943;28;20027;-96
2021/07/29 08:28:42;;;;;;;8.52;1.55;;;14.70;99.90;;;;;;4980761;28;20126;-96
2021/07/29 08:31:12;;;;;;;3.47;1.75;;;14.60;99.90;;;;;;4966145;28;20037;-96
2021/07/29 08:33:41;;;;;;;5.68;1.55;;;14.60;99.90;;;;;;4942326;28;20031;-95
2021/07/29 08:36:18;;;;;;;3.33;1.75;;;14.60;99.90;;;;;;4972096;28;20085;-95
2021/07/29 08:38:45;;;;;;;7.30;1.70;;;14.60;99.90;;;;;;4963783;28;20027;-95
2021/07/29 08:41:11;;;;;;;5.82;1.52;;;14.60;99.90;;;;;;4969270;28;20019;-94
2021/07/29 08:43:38;;;;;;;4.20;1.50;;;14.60;99.90;;;;;;4965298;28;20030;-94
2021/07/29 08:46:04;;;;;;;4.15;1.98;;;14.60;99.90;;;;;;4958731;28;20031;-92
2021/07/29 08:48:33;;;;;;;2.03;1.52;;;14.50;99.90;;;;;;4958919;28;20023;-93
2021/07/29 08:51:03;;;;;;;4.88;1.80;;;14.50;99.90;;;;;;4958563;28;20105;-96
2021/07/29 08:53:29;;;;;;;4.57;1.92;;;14.50;99.90;;;;;;4957072;28;20022;-94
2021/07/29 08:55:56;;;;;;;3.55;1.98;;;14.50;99.90;;;;;;4958839;28;20035;-92
2021/07/29 08:58:22;;;;;;;5.30;2.25;;;14.50;99.90;;;;;;4958186;28;20121;-93
2021/07/29 09:00:58;;;;;;;4.63;1.80;;;14.50;99.90;;;;;;4953607;28;20100;-95
2021/07/29 09:03:26;;;;;;;4.55;2.10;;;14.50;99.90;;;;;;4959052;28;20034;-94
2021/07/29 09:06:07;;;;;;;4.28;1.80;;;14.50;99.90;;;;;;4959031;28;20015;-94
2021/07/29 09:08:53;;;;;;;3.83;2.38;;;14.60;99.90;;;;;;4956948;28;20480;-94
2021/07/29 09:11:26;;;;;;;4.93;2.25;;;14.60;99.90;;;;;;4958481;28;20038;-93
2021/07/29 09:14:13;;;;;;;3.28;1.85;;;14.80;99.90;;;;;;4957221;28;20070;-95
2021/07/29 09:16:58;;;;;;;6.57;1.98;;;14.90;99.90;;;;;;4950865;28;20066;-92
2021/07/29 09:19:44;;;;;;;3.78;2.10;;;15.00;99.90;;;;;;4958736;28;20030;-91
2021/07/29 09:22:24;;;;;;;6.45;2.50;;;15.10;99.90;;;;;;4959633;28;20073;-92
2021/07/29 09:25:07;;;;;;;5.25;2.70;;;15.20;99.90;;;;;;4977256;28;20022;-91
2021/07/29 09:27:39;;;;;;;6.15;2.72;;;15.40;99.90;;;;;;4959658;28;20066;-93
2021/07/29 09:30:28;;;;;;;6.35;2.20;;;15.50;99.90;;;;;;4959682;28;20073;-90
2021/07/29 09:33:09;;;;;;;3.40;2.50;;;15.60;99.90;;;;;;4959413;28;20029;-92
2021/07/29 09:35:47;;;;;;;2.53;1.90;;;15.60;99.90;;;;;;4958548;28;20025;-91
2021/07/29 09:38:21;;;;;;;4.38;2.72;;;15.70;99.90;;;;;;4959471;28;20047;-91
2021/07/29 09:40:54;;;;;;;3.92;2.10;;;15.80;99.90;;;;;;4959551;28;20027;-91
2021/07/29 09:43:33;;;;;;;2.28;1.83;;;15.80;99.90;;;;;;4959819;28;20121;-92
2021/07/29 09:46:02;;;;;;;6.00;2.15;;;15.90;99.90;;;;;;4959008;28;20026;-92
2021/07/29 09:48:28;;;;;;;3.80;1.65;;;15.90;99.90;;;;;;4959408;28;20034;-91
2021/07/29 09:50:58;;;;;;;4.32;1.80;;;16.00;99.90;;;;;;4958263;28;20473;-91
2021/07/29 09:53:23;;;;;;;8.30;1.60;;;16.00;99.90;;;;;;4957987;28;20027;-90
2021/07/29 09:55:49;;;;;;;2.17;1.75;;;16.10;99.90;;;;;;4958337;28;20444;-91
2021/07/29 09:58:15;;;;;;;6.05;1.63;;;16.10;99.80;;;;;;4957938;28;20075;-91
2021/07/29 10:00:42;;;;;;;3.88;1.65;;;16.30;99.70;;;;;;4957517;28;20678;-92
2021/07/29 10:03:09;;;;;;;2.78;1.48;;;16.40;99.50;;;;;;4957244;28;20263;-91
2021/07/29 10:05:48;;;;;;;7.45;2.33;;;16.60;99.40;;;;;;4956343;28;21018;-91
2021/07/29 10:08:28;;;;;;;7.60;1.63;;;16.80;99.30;;;;;;4974221;28;20070;-91
2021/07/29 10:10:54;;;;;;;3.63;1.73;;;16.90;98.50;;;;;;4956102;28;20030;-91
2021/07/29 10:13:32;;;;;;;2.45;1.65;;;16.90;97.80;;;;;;4957625;28;20027;-92
2021/07/29 10:15:58;;;;;;;3.83;1.40;;;16.90;97.40;;;;;;4957811;28;20038;-91
2021/07/29 10:18:23;;;;;;;5.63;1.20;;;17.00;97.60;;;;;;4975338;28;20166;-91
2021/07/29 10:21:22;;;;;;;6.95;1.85;;;17.10;97.60;;;;;;4958223;28;20085;-90
2021/07/29 10:23:56;;;;;;;10.88;2.38;;;17.30;97.70;;;;;;4957542;28;20058;-91
2021/07/29 10:26:22;;;;;;;5.65;1.38;;;17.40;97.80;;;;;;4957793;28;20054;-91
2021/07/29 10:28:49;;;;;;;4.47;1.80;;;17.40;96.70;;;;;;4958495;28;20029;-90
2021/07/29 10:31:17;;;;;;;7.30;1.73;;;17.40;96.80;;;;;;4958475;28;20551;-92
2021/07/29 10:33:44;;;;;;;5.20;1.65;;;17.40;96.80;;;;;;4957868;28;20034;-91
2021/07/29 10:36:43;;;;;;;5.45;1.92;;;17.20;96.80;;;;;;4957832;28;20049;-93
2021/07/29 10:39:09;;;;;;;6.60;2.38;;;17.20;97.20;;;;;;4957630;28;20129;-90
2021/07/29 10:41:34;;;;;;;2.90;1.40;;;17.00;97.20;;;;;;4957609;28;20050;-91
2021/07/29 10:44:03;;;;;;;7.63;1.70;;;16.90;97.30;;;;;;4956655;28;20388;-92
2021/07/29 10:46:53;;;;;;;5.60;1.77;;;16.80;97.60;;;;;;4955441;28;20616;-91
2021/07/29 10:49:20;;;;;;;3.15;2.00;;;16.70;98.30;;;;;;4952378;28;20023;-91
2021/07/29 10:52:04;;;;;;;7.38;1.40;;;16.70;98.90;;;;;;4955041;28;20047;-91
2021/07/29 10:54:31;;;;;;;4.88;1.00;;;16.70;98.90;;;;;;4956533;28;20031;-91
2021/07/29 10:56:57;;;;;;;2.72;1.20;;;16.60;99.00;;;;;;4955977;28;20070;-89
2021/07/29 10:59:23;;;;;;;5.40;1.27;;;16.40;99.20;;;;;;4956174;28;20030;-86
2021/07/29 11:01:49;;;;;;;5.43;1.90;;;16.30;99.60;;;;;;4956291;28;20472;-86
2021/07/29 11:04:15;;;;;;;6.80;2.17;;;16.20;99.90;;;;;;4956419;28;20465;-86
2021/07/29 11:06:44;;;;;;;11.75;2.38;;;16.30;99.90;;;;;;4973616;28;20092;-88
2021/07/29 11:09:17;;;;;;;3.70;1.48;;;16.30;99.90;;;;;;4974312;28;20051;-86
2021/07/29 11:11:44;;;;;;;5.95;1.48;;;16.30;99.90;;;;;;4956809;28;20027;-86
2021/07/29 11:14:10;;;;;;;1.98;1.67;;;16.30;99.90;;;;;;4973840;28;20401;-86
2021/07/29 11:16:37;;;;;;;3.45;1.30;;;16.30;99.90;;;;;;4973728;28;20043;-86
2021/07/29 11:19:05;;;;;;;3.53;2.03;;;16.20;99.90;;;;;;4974103;28;20026;-85
2021/07/29 11:21:32;;;;;;;7.38;2.20;;;16.10;99.90;;;;;;4973899;28;20023;-86
2021/07/29 11:23:59;;;;;;;2.70;1.35;;;16.00;99.90;;;;;;4974010;28;20059;-85
2021/07/29 11:26:25;;;;;;;2.75;1.58;;;15.90;99.90;;;;;;4973796;28;20026;-86
2021/07/29 11:29:10;;;;;;;5.32;1.65;;;15.80;99.90;;;;;;4973609;28;20035;-86
2021/07/29 11:31:37;;;;;;;4.22;1.52;;;15.70;99.90;;;;;;4972676;28;20428;-85
2021/07/29 11:34:03;;;;;;;6.47;1.73;;;15.70;99.90;;;;;;4973820;28;20027;-86
2021/07/29 11:36:29;;;;;;;5.13;1.63;;;15.70;99.90;;;;;;4956135;28;20034;-85
2021/07/29 11:39:00;;;;;;;3.65;1.33;;;15.60;99.90;;;;;;4973819;28;20026;-86
2021/07/29 11:41:30;;;;;;;3.58;1.67;;;15.60;99.90;;;;;;4973589;28;20027;-86
2021/07/29 11:44:00;;;;;;;4.78;2.00;;;15.60;99.90;;;;;;4973838;28;20110;-90
2021/07/29 11:46:26;;;;;;;4.72;1.80;;;15.60;99.90;;;;;;4956484;28;20475;-91
2021/07/29 11:49:07;;;;;;;6.15;2.47;;;15.60;99.90;;;;;;4956180;28;20118;-90
2021/07/29 11:51:34;;;;;;;6.28;1.95;;;15.60;99.90;;;;;;4957011;28;20057;-91
2021/07/29 11:53:59;;;;;;;6.07;2.30;;;15.70;99.90;;;;;;4957055;28;20037;-91
2021/07/29 11:56:26;;;;;;;5.53;2.55;;;15.70;99.90;;;;;;4956545;28;20411;-91
2021/07/29 11:59:00;;;;;;;5.93;1.83;;;15.80;99.90;;;;;;4959823;28;20027;-91
2021/07/29 12:01:26;;;;;;;3.38;1.73;;;15.90;99.90;;;;;;4959847;28;20027;-91
2021/07/29 12:03:55;;;;;;;2.75;1.83;;;15.90;99.90;;;;;;4961266;28;20062;-91
2021/07/29 12:06:21;;;;;;;4.18;1.65;;;15.90;99.90;;;;;;4960872;28;20090;-90
2021/07/29 12:08:49;;;;;;;3.67;1.40;;;15.90;99.90;;;;;;4960981;28;20076;-90
2021/07/29 12:11:18;;;;;;;5.07;1.80;;;15.90;99.90;;;;;;4962007;28;20025;-90
2021/07/29 12:13:45;;;;;;;3.95;1.30;;;15.90;99.90;;;;;;4961472;28;20033;-90
2021/07/29 12:16:12;;;;;;;4.50;1.30;;;15.80;99.90;;;;;;4960494;28;20046;-92
2021/07/29 12:18:38;;;;;;;6.32;1.20;;;15.80;99.90;;;;;;4961104;28;20031;-91
2021/07/29 12:21:05;;;;;;;11.00;1.50;;;15.90;99.90;;;;;;4961081;28;20037;-91
2021/07/29 12:23:32;;;;;;;3.00;1.40;;;16.00;99.90;;;;;;4960628;28;20118;-91
2021/07/29 12:26:11;;;;;;;4.32;1.30;;;16.10;99.90;;;;;;4961128;28;20026;-90
2021/07/29 12:28:42;;;;;;;3.95;1.33;;;16.40;99.90;;;;;;4961016;28;20042;-91
2021/07/29 12:31:23;;;;;;;4.60;1.70;;;16.50;99.90;;;;;;4960619;28;20034;-90
2021/07/29 12:33:58;;;;;;;5.18;1.77;;;16.70;99.90;;;;;;4960789;28;20378;-90
2021/07/29 12:36:44;;;;;;;3.25;1.77;;;17.00;99.90;;;;;;4960480;28;20042;-89
2021/07/29 12:39:11;;;;;;;4.13;2.70;;;17.40;99.90;;;;;;4960950;28;20034;-90
2021/07/29 12:41:39;;;;;;;5.07;3.20;;;17.80;99.50;;;;;;4960499;28;20049;-90
2021/07/29 12:44:25;;;;;;;7.55;2.90;;;18.00;98.20;;;;;;4960694;28;20031;-90
2021/07/29 12:47:09;;;;;;;6.43;2.47;;;18.00;97.70;;;;;;4960049;28;20039;-89
2021/07/29 12:49:40;;;;;;;2.47;1.77;;;18.00;96.90;;;;;;4960813;28;20054;-91
2021/07/29 12:52:21;;;;;;;2.42;1.70;;;17.90;96.50;;;;;;4960537;28;20050;-90
2021/07/29 12:55:00;;;;;;;4.05;1.25;;;17.90;96.40;;;;;;4977878;28;20031;-88
2021/07/29 12:57:27;;;;;;;4.50;1.33;;;17.80;96.60;;;;;;4960036;28;20409;-90
2021/07/29 12:59:53;;;;;;;3.65;1.67;;;17.60;95.10;;;;;;4960576;28;20026;-90
2021/07/29 13:02:18;;;;;;;3.17;1.67;;;17.40;95.50;;;;;;4961106;28;20035;-92
2021/07/29 13:04:44;;;;;;;6.72;1.80;;;17.30;95.90;;;;;;4961419;28;20018;-91
2021/07/29 13:07:09;;;;;;;3.80;1.50;;;17.10;96.10;;;;;;4961358;28;20023;-90
2021/07/29 13:09:36;;;;;;;6.18;1.85;;;17.10;96.50;;;;;;4960630;28;20031;-91
2021/07/29 13:12:04;;;;;;;2.08;1.60;;;17.00;96.90;;;;;;4962485;28;20046;-92
2021/07/29 13:14:31;;;;;;;3.50;2.00;;;17.00;97.30;;;;;;4969591;28;20022;-90
2021/07/29 13:16:56;;;;;;;9.10;1.90;;;17.00;97.50;;;;;;4980808;28;20026;-91
2021/07/29 13:19:22;;;;;;;6.07;1.85;;;16.90;97.60;;;;;;4983274;28;20516;-92
2021/07/29 13:21:50;;;;;;;8.00;1.85;;;16.90;97.90;;;;;;4981676;28;20061;-91
2021/07/29 13:24:16;;;;;;;3.63;1.70;;;16.80;97.80;;;;;;4973070;28;20046;-89
2021/07/29 13:26:42;;;;;;;3.95;1.70;;;16.70;97.80;;;;;;4961646;28;20027;-90
2021/07/29 13:29:08;;;;;;;5.03;1.90;;;16.60;97.80;;;;;;4959808;28;20037;-91
2021/07/29 13:31:35;;;;;;;2.55;1.60;;;16.60;98.10;;;;;;4960473;28;20496;-91
2021/07/29 13:34:01;;;;;;;3.65;1.52;;;16.60;98.30;;;;;;4960061;28;20042;-90
2021/07/29 13:36:27;;;;;;;3.90;2.10;;;16.60;98.50;;;;;;4959888;28;20126;-91
2021/07/29 13:38:53;;;;;;;3.85;1.80;;;16.60;98.70;;;;;;4960133;28;20117;-90
2021/07/29 13:41:19;;;;;;;4.47;2.30;;;16.70;98.80;;;;;;4959199;28;20031;-91
2021/07/29 13:43:45;;;;;;;6.72;2.83;;;16.70;98.90;;;;;;4959746;28;20027;-92
2021/07/29 13:46:10;;;;;;;5.50;2.45;;;16.80;99.00;;;;;;4959509;28;20054;-90
2021/07/29 13:48:36;;;;;;;3.88;2.28;;;16.90;99.10;;;;;;4959421;28;20027;-90
2021/07/29 13:51:02;;;;;;;6.10;2.40;;;17.00;99.00;;;;;;4959409;28;20492;-92
2021/07/29 13:53:28;;;;;;;4.97;2.00;;;17.00;98.80;;;;;;4959110;28;20023;-93
2021/07/29 13:55:53;;;;;;;2.25;1.75;;;17.10;98.70;;;;;;4958901;28;20027;-90
2021/07/29 13:58:19;;;;;;;5.50;1.90;;;17.10;98.40;;;;;;4958591;28;20042;-91
2021/07/29 14:00:48;;;;;;;4.45;1.65;;;17.10;98.40;;;;;;4958718;28;20058;-90
2021/07/29 14:03:14;;;;;;;2.17;1.60;;;17.20;98.50;;;;;;4959244;28;20026;-91
2021/07/29 14:05:43;;;;;;;2.88;1.58;;;17.30;98.20;;;;;;4959576;28;20034;-91
2021/07/29 14:08:09;;;;;;;3.63;1.92;;;17.40;97.80;;;;;;4959235;28;20045;-91
2021/07/29 14:10:36;;;;;;;4.50;2.00;;;17.40;97.70;;;;;;4959564;28;20030;-90
2021/07/29 14:13:01;;;;;;;1.50;1.40;;;17.40;97.70;;;;;;4959410;28;20541;-90
2021/07/29 14:15:27;;;;;;;6.30;1.50;;;17.50;97.90;;;;;;4959323;28;20121;-91
2021/07/29 14:18:00;;;;;;;11.48;1.50;;;17.50;97.50;;;;;;4958041;28;20047;-90
2021/07/29 14:20:30;;;;;;;4.28;2.05;;;17.40;97.50;;;;;;4955632;28;20026;-91
2021/07/29 14:25:23;;;;;;;4.15;2.05;;;17.60;97.40;;;;;;4975608;28;20049;-92
2021/07/29 14:27:51;;;;;;;5.22;1.48;;;17.80;97.10;;;;;;4958739;28;20492;-91
2021/07/29 14:30:17;;;;;;;4.47;1.90;;;17.90;96.50;;;;;;4959195;28;20059;-90
2021/07/29 14:32:44;;;;;;;6.22;1.63;;;18.00;96.10;;;;;;4959054;28;20037;-91
2021/07/29 14:35:10;;;;;;;8.15;1.88;;;18.00;95.60;;;;;;4956106;28;20064;-92
2021/07/29 14:37:36;;;;;;;5.35;2.10;;;18.00;95.60;;;;;;4958763;28;20030;-89
2021/07/29 14:40:03;;;;;;;4.32;1.88;;;18.10;95.90;;;;;;4958294;28;20125;-91
2021/07/29 14:42:29;;;;;;;4.90;1.88;;;18.20;95.90;;;;;;4958373;28;20030;-91
2021/07/29 14:50:05;;;;;;;2.35;1.90;;;18.40;93.90;;;;;;4975200;28;20034;-89
2021/07/29 14:52:32;;;;;;;1.63;1.35;;;18.40;93.70;;;;;;4958519;28;20026;-92
2021/07/29 14:55:23;;;;;;;4.25;1.85;;;18.40;93.80;;;;;;4959040;28;20027;-89
2021/07/29 16:08:12;;;;;;;3.65;1.48;;;19.00;92.50;;;;;;4979145;28;20041;-94
2021/07/29 16:10:38;;;;;;;2.35;1.25;;;18.90;92.50;;;;;;4961822;28;20023;-94
2021/07/29 16:13:05;;;;;;;9.65;1.65;;;18.70;92.60;;;;;;4961213;28;20038;-94
2021/07/29 16:15:34;;;;;;;5.13;1.73;;;18.50;92.90;;;;;;4961566;28;20062;-94
2021/07/29 16:17:59;;;;;;;4.65;1.42;;;18.40;93.40;;;;;;4961629;28;20053;-95
2021/07/29 16:20:25;;;;;;;6.57;1.50;;;18.40;93.70;;;;;;4961075;28;20031;-94
2021/07/29 16:22:52;;;;;;;6.53;1.45;;;18.40;93.70;;;;;;4960945;28;20101;-95
2021/07/29 16:25:18;;;;;;;6.15;1.50;;;18.30;93.80;;;;;;4961802;28;20033;-93
2021/07/29 16:27:43;;;;;;;6.97;1.25;;;18.30;94.00;;;;;;4962070;28;20023;-93
2021/07/29 16:30:09;;;;;;;5.30;1.48;;;18.30;94.20;;;;;;4962264;28;20137;-94
2021/07/29 16:32:35;;;;;;;6.78;1.90;;;18.30;94.30;;;;;;4963063;28;20046;-94
2021/07/29 16:35:00;;;;;;;5.95;1.58;;;18.30;94.30;;;;;;4980389;28;20030;-93